sensor_id;sensor_type;location;lat;lon;timestamp;P1;durP1;ratioP1;P2;durP2;ratioP2
33858;SDS011;20156;47.486;12.074;2023-02-26T00:01:22;3.07;;;2.23;;
33858;SDS011;20156;47.486;12.074;2023-02-26T00:03:49;2.30;;;2.10;;
33858;SDS011;20156;47.486;12.074;2023-02-26T00:06:16;3.23;;;2.10;;
33858;SDS011;20156;47.486;12.074;2023-02-26T00:08:42;3.27;;;2.30;;
33858;SDS011;20156;47.486;12.074;2023-02-26T00:11:08;3.40;;;2.10;;
33858;SDS011;20156;47.486;12.074;2023-02-26T00:13:35;2.67;;;2.00;;
33858;SDS011;20156;47.486;12.074;2023-02-26T00:16:01;1.63;;;1.53;;
33858;SDS011;20156;47.486;12.074;2023-02-26T00:18:27;2.00;;;1.70;;
33858;SDS011;20156;47.486;12.074;2023-02-26T00:20:53;2.00;;;1.90;;
33858;SDS011;20156;47.486;12.074;2023-02-26T00:23:19;2.50;;;1.80;;
33858;SDS011;20156;47.486;12.074;2023-02-26T00:25:45;1.90;;;1.73;;
33858;SDS011;20156;47.486;12.074;2023-02-26T00:28:11;1.97;;;1.87;;
33858;SDS011;20156;47.486;12.074;2023-02-26T00:30:38;2.40;;;2.20;;
33858;SDS011;20156;47.486;12.074;2023-02-26T00:33:04;3.57;;;2.20;;
33858;SDS011;20156;47.486;12.074;2023-02-26T00:35:29;2.73;;;2.20;;
33858;SDS011;20156;47.486;12.074;2023-02-26T00:43:19;2.50;;;2.30;;
33858;SDS011;20156;47.486;12.074;2023-02-26T00:48:35;2.50;;;2.00;;
33858;SDS011;20156;47.486;12.074;2023-02-26T00:51:31;2.83;;;2.40;;
33858;SDS011;20156;47.486;12.074;2023-02-26T00:54:11;4.93;;;2.90;;
33858;SDS011;20156;47.486;12.074;2023-02-26T00:56:52;3.63;;;2.50;;
33858;SDS011;20156;47.486;12.074;2023-02-26T00:59:19;7.77;;;6.30;;
33858;SDS011;20156;47.486;12.074;2023-02-26T01:01:45;5.77;;;5.07;;
33858;SDS011;20156;47.486;12.074;2023-02-26T01:04:12;2.30;;;2.10;;
33858;SDS011;20156;47.486;12.074;2023-02-26T01:06:41;1.80;;;1.70;;
33858;SDS011;20156;47.486;12.074;2023-02-26T01:11:51;1.77;;;1.57;;
33858;SDS011;20156;47.486;12.074;2023-02-26T01:14:18;1.30;;;1.20;;
33858;SDS011;20156;47.486;12.074;2023-02-26T01:17:03;1.40;;;1.30;;
33858;SDS011;20156;47.486;12.074;2023-02-26T01:22:15;1.93;;;1.40;;
33858;SDS011;20156;47.486;12.074;2023-02-26T01:25:00;2.83;;;1.70;;
33858;SDS011;20156;47.486;12.074;2023-02-26T01:27:28;0.93;;;0.87;;
33858;SDS011;20156;47.486;12.074;2023-02-26T01:29:54;1.00;;;0.80;;
33858;SDS011;20156;47.486;12.074;2023-02-26T01:37:32;1.10;;;1.10;;
33858;SDS011;20156;47.486;12.074;2023-02-26T01:46:25;1.30;;;1.20;;
33858;SDS011;20156;47.486;12.074;2023-02-26T01:48:57;2.53;;;1.60;;
33858;SDS011;20156;47.486;12.074;2023-02-26T01:54:14;1.57;;;1.47;;
33858;SDS011;20156;47.486;12.074;2023-02-26T01:56:40;1.07;;;1.00;;
33858;SDS011;20156;47.486;12.074;2023-02-26T01:59:08;1.20;;;1.13;;
33858;SDS011;20156;47.486;12.074;2023-02-26T02:01:38;1.37;;;1.27;;
33858;SDS011;20156;47.486;12.074;2023-02-26T02:04:05;1.67;;;1.40;;
33858;SDS011;20156;47.486;12.074;2023-02-26T02:06:35;2.57;;;1.87;;
33858;SDS011;20156;47.486;12.074;2023-02-26T02:09:03;1.40;;;1.30;;
33858;SDS011;20156;47.486;12.074;2023-02-26T02:11:29;1.00;;;1.00;;
33858;SDS011;20156;47.486;12.074;2023-02-26T02:16:42;0.83;;;0.83;;
33858;SDS011;20156;47.486;12.074;2023-02-26T02:33:45;1.03;;;1.00;;
33858;SDS011;20156;47.486;12.074;2023-02-26T02:36:35;1.40;;;1.30;;
33858;SDS011;20156;47.486;12.074;2023-02-26T02:39:12;0.90;;;0.90;;
33858;SDS011;20156;47.486;12.074;2023-02-26T02:45:14;0.70;;;0.70;;
33858;SDS011;20156;47.486;12.074;2023-02-26T02:47:42;1.10;;;1.00;;
33858;SDS011;20156;47.486;12.074;2023-02-26T02:50:33;1.40;;;1.30;;
33858;SDS011;20156;47.486;12.074;2023-02-26T02:53:25;1.40;;;1.30;;
33858;SDS011;20156;47.486;12.074;2023-02-26T02:55:58;1.67;;;1.50;;
33858;SDS011;20156;47.486;12.074;2023-02-26T02:58:30;1.40;;;1.30;;
33858;SDS011;20156;47.486;12.074;2023-02-26T03:01:02;1.17;;;1.17;;
33858;SDS011;20156;47.486;12.074;2023-02-26T03:06:08;1.40;;;1.30;;
33858;SDS011;20156;47.486;12.074;2023-02-26T03:08:35;1.60;;;1.40;;
33858;SDS011;20156;47.486;12.074;2023-02-26T03:11:05;1.70;;;1.60;;
33858;SDS011;20156;47.486;12.074;2023-02-26T03:13:32;1.73;;;1.63;;
33858;SDS011;20156;47.486;12.074;2023-02-26T03:21:16;2.57;;;1.70;;
33858;SDS011;20156;47.486;12.074;2023-02-26T03:23:52;1.63;;;1.53;;
33858;SDS011;20156;47.486;12.074;2023-02-26T03:26:38;2.30;;;1.80;;
33858;SDS011;20156;47.486;12.074;2023-02-26T03:29:08;1.73;;;1.63;;
33858;SDS011;20156;47.486;12.074;2023-02-26T03:34:31;1.90;;;1.80;;
33858;SDS011;20156;47.486;12.074;2023-02-26T03:37:05;1.80;;;1.70;;
33858;SDS011;20156;47.486;12.074;2023-02-26T03:42:31;1.90;;;1.80;;
33858;SDS011;20156;47.486;12.074;2023-02-26T03:47:51;2.40;;;2.20;;
33858;SDS011;20156;47.486;12.074;2023-02-26T03:50:35;3.70;;;2.50;;
33858;SDS011;20156;47.486;12.074;2023-02-26T03:53:02;2.37;;;2.17;;
33858;SDS011;20156;47.486;12.074;2023-02-26T03:55:35;3.00;;;2.30;;
33858;SDS011;20156;47.486;12.074;2023-02-26T03:58:06;2.73;;;2.43;;
33858;SDS011;20156;47.486;12.074;2023-02-26T04:00:32;3.03;;;2.73;;
33858;SDS011;20156;47.486;12.074;2023-02-26T04:03:13;2.70;;;2.50;;
33858;SDS011;20156;47.486;12.074;2023-02-26T04:05:45;2.87;;;2.67;;
33858;SDS011;20156;47.486;12.074;2023-02-26T04:08:13;5.47;;;3.33;;
33858;SDS011;20156;47.486;12.074;2023-02-26T04:10:44;1.90;;;1.80;;
33858;SDS011;20156;47.486;12.074;2023-02-26T04:13:15;3.10;;;2.27;;
33858;SDS011;20156;47.486;12.074;2023-02-26T04:15:41;3.97;;;2.03;;
33858;SDS011;20156;47.486;12.074;2023-02-26T04:18:06;2.70;;;2.07;;
33858;SDS011;20156;47.486;12.074;2023-02-26T04:20:31;2.00;;;1.80;;
33858;SDS011;20156;47.486;12.074;2023-02-26T04:22:57;2.10;;;2.00;;
33858;SDS011;20156;47.486;12.074;2023-02-26T04:25:22;3.00;;;2.23;;
33858;SDS011;20156;47.486;12.074;2023-02-26T04:27:48;2.50;;;2.30;;
33858;SDS011;20156;47.486;12.074;2023-02-26T04:30:14;2.57;;;2.17;;
33858;SDS011;20156;47.486;12.074;2023-02-26T04:32:39;2.90;;;2.53;;
33858;SDS011;20156;47.486;12.074;2023-02-26T04:35:05;2.70;;;2.50;;
33858;SDS011;20156;47.486;12.074;2023-02-26T04:37:30;2.97;;;2.77;;
33858;SDS011;20156;47.486;12.074;2023-02-26T04:39:56;2.97;;;2.77;;
33858;SDS011;20156;47.486;12.074;2023-02-26T04:42:21;3.93;;;2.83;;
33858;SDS011;20156;47.486;12.074;2023-02-26T04:44:46;2.67;;;2.47;;
33858;SDS011;20156;47.486;12.074;2023-02-26T04:47:12;3.37;;;2.50;;
33858;SDS011;20156;47.486;12.074;2023-02-26T04:49:37;3.63;;;3.00;;
33858;SDS011;20156;47.486;12.074;2023-02-26T04:52:03;2.80;;;2.60;;
33858;SDS011;20156;47.486;12.074;2023-02-26T04:54:28;3.80;;;3.20;;
33858;SDS011;20156;47.486;12.074;2023-02-26T04:56:54;4.73;;;3.40;;
33858;SDS011;20156;47.486;12.074;2023-02-26T04:59:19;3.30;;;3.00;;
33858;SDS011;20156;47.486;12.074;2023-02-26T05:01:45;3.50;;;2.93;;
33858;SDS011;20156;47.486;12.074;2023-02-26T05:04:10;3.00;;;2.70;;
33858;SDS011;20156;47.486;12.074;2023-02-26T05:06:35;3.63;;;3.33;;
33858;SDS011;20156;47.486;12.074;2023-02-26T05:09:01;3.97;;;3.10;;
33858;SDS011;20156;47.486;12.074;2023-02-26T05:11:27;4.10;;;3.13;;
33858;SDS011;20156;47.486;12.074;2023-02-26T05:13:52;3.40;;;3.10;;
33858;SDS011;20156;47.486;12.074;2023-02-26T05:16:18;3.23;;;2.80;;
33858;SDS011;20156;47.486;12.074;2023-02-26T05:18:43;3.20;;;2.80;;
33858;SDS011;20156;47.486;12.074;2023-02-26T05:21:08;3.20;;;2.90;;
33858;SDS011;20156;47.486;12.074;2023-02-26T05:23:34;3.27;;;2.87;;
33858;SDS011;20156;47.486;12.074;2023-02-26T05:25:59;3.03;;;2.60;;
33858;SDS011;20156;47.486;12.074;2023-02-26T05:28:25;3.47;;;3.17;;
33858;SDS011;20156;47.486;12.074;2023-02-26T05:30:51;2.87;;;2.57;;
33858;SDS011;20156;47.486;12.074;2023-02-26T05:33:17;3.30;;;3.00;;
33858;SDS011;20156;47.486;12.074;2023-02-26T05:35:43;3.10;;;2.80;;
33858;SDS011;20156;47.486;12.074;2023-02-26T05:38:09;4.03;;;3.63;;
33858;SDS011;20156;47.486;12.074;2023-02-26T05:40:35;3.90;;;3.33;;
33858;SDS011;20156;47.486;12.074;2023-02-26T05:43:00;5.63;;;4.20;;
33858;SDS011;20156;47.486;12.074;2023-02-26T05:45:25;3.27;;;2.97;;
33858;SDS011;20156;47.486;12.074;2023-02-26T05:47:51;4.10;;;3.47;;
33858;SDS011;20156;47.486;12.074;2023-02-26T05:50:16;3.80;;;3.03;;
33858;SDS011;20156;47.486;12.074;2023-02-26T05:52:42;3.53;;;3.00;;
33858;SDS011;20156;47.486;12.074;2023-02-26T05:55:07;4.83;;;3.47;;
33858;SDS011;20156;47.486;12.074;2023-02-26T05:57:33;3.37;;;3.07;;
33858;SDS011;20156;47.486;12.074;2023-02-26T05:59:59;3.50;;;3.20;;
33858;SDS011;20156;47.486;12.074;2023-02-26T06:02:24;4.33;;;3.93;;
33858;SDS011;20156;47.486;12.074;2023-02-26T06:04:50;3.70;;;3.40;;
33858;SDS011;20156;47.486;12.074;2023-02-26T06:07:15;4.10;;;3.70;;
33858;SDS011;20156;47.486;12.074;2023-02-26T06:09:40;3.57;;;3.27;;
33858;SDS011;20156;47.486;12.074;2023-02-26T06:12:06;4.43;;;3.23;;
33858;SDS011;20156;47.486;12.074;2023-02-26T06:14:32;4.27;;;3.87;;
33858;SDS011;20156;47.486;12.074;2023-02-26T06:16:57;4.47;;;4.07;;
33858;SDS011;20156;47.486;12.074;2023-02-26T06:19:23;7.40;;;5.57;;
33858;SDS011;20156;47.486;12.074;2023-02-26T06:21:48;4.33;;;3.93;;
33858;SDS011;20156;47.486;12.074;2023-02-26T06:24:14;4.27;;;3.87;;
33858;SDS011;20156;47.486;12.074;2023-02-26T06:26:39;4.23;;;3.83;;
33858;SDS011;20156;47.486;12.074;2023-02-26T06:29:05;3.87;;;3.43;;
33858;SDS011;20156;47.486;12.074;2023-02-26T06:31:30;9.47;;;6.27;;
33858;SDS011;20156;47.486;12.074;2023-02-26T06:33:55;6.73;;;5.27;;
33858;SDS011;20156;47.486;12.074;2023-02-26T06:36:21;4.23;;;3.70;;
33858;SDS011;20156;47.486;12.074;2023-02-26T06:38:46;4.67;;;4.23;;
33858;SDS011;20156;47.486;12.074;2023-02-26T06:41:12;6.53;;;4.13;;
33858;SDS011;20156;47.486;12.074;2023-02-26T06:43:38;6.67;;;5.20;;
33858;SDS011;20156;47.486;12.074;2023-02-26T06:46:04;5.77;;;4.20;;
33858;SDS011;20156;47.486;12.074;2023-02-26T06:48:29;5.50;;;3.90;;
33858;SDS011;20156;47.486;12.074;2023-02-26T06:50:55;6.47;;;4.50;;
33858;SDS011;20156;47.486;12.074;2023-02-26T06:53:21;5.90;;;3.70;;
33858;SDS011;20156;47.486;12.074;2023-02-26T06:55:48;4.00;;;3.60;;
33858;SDS011;20156;47.486;12.074;2023-02-26T06:58:15;4.37;;;3.63;;
33858;SDS011;20156;47.486;12.074;2023-02-26T07:00:40;4.47;;;4.00;;
33858;SDS011;20156;47.486;12.074;2023-02-26T07:03:06;10.67;;;7.33;;
33858;SDS011;20156;47.486;12.074;2023-02-26T07:05:36;6.53;;;4.93;;
33858;SDS011;20156;47.486;12.074;2023-02-26T07:08:01;6.20;;;4.70;;
33858;SDS011;20156;47.486;12.074;2023-02-26T07:10:26;6.90;;;5.20;;
33858;SDS011;20156;47.486;12.074;2023-02-26T07:12:52;5.27;;;4.33;;
33858;SDS011;20156;47.486;12.074;2023-02-26T07:15:17;3.80;;;3.50;;
33858;SDS011;20156;47.486;12.074;2023-02-26T07:17:43;5.60;;;4.10;;
33858;SDS011;20156;47.486;12.074;2023-02-26T07:20:08;4.77;;;3.47;;
33858;SDS011;20156;47.486;12.074;2023-02-26T07:22:36;4.10;;;3.20;;
33858;SDS011;20156;47.486;12.074;2023-02-26T07:25:02;5.80;;;4.03;;
33858;SDS011;20156;47.486;12.074;2023-02-26T07:27:28;3.37;;;3.07;;
33858;SDS011;20156;47.486;12.074;2023-02-26T07:29:54;5.70;;;4.20;;
33858;SDS011;20156;47.486;12.074;2023-02-26T07:32:20;13.23;;;7.77;;
33858;SDS011;20156;47.486;12.074;2023-02-26T07:34:46;4.07;;;3.67;;
33858;SDS011;20156;47.486;12.074;2023-02-26T07:37:11;9.83;;;5.43;;
33858;SDS011;20156;47.486;12.074;2023-02-26T07:39:36;3.37;;;3.00;;
33858;SDS011;20156;47.486;12.074;2023-02-26T07:42:02;3.70;;;3.17;;
33858;SDS011;20156;47.486;12.074;2023-02-26T07:44:28;6.97;;;4.33;;
33858;SDS011;20156;47.486;12.074;2023-02-26T07:46:53;2.97;;;2.63;;
33858;SDS011;20156;47.486;12.074;2023-02-26T07:49:19;7.47;;;4.87;;
33858;SDS011;20156;47.486;12.074;2023-02-26T07:51:45;7.07;;;5.40;;
33858;SDS011;20156;47.486;12.074;2023-02-26T07:54:11;13.50;;;8.67;;
33858;SDS011;20156;47.486;12.074;2023-02-26T07:56:38;6.03;;;4.30;;
33858;SDS011;20156;47.486;12.074;2023-02-26T07:59:05;5.20;;;3.60;;
33858;SDS011;20156;47.486;12.074;2023-02-26T08:01:31;5.80;;;5.00;;
33858;SDS011;20156;47.486;12.074;2023-02-26T08:03:56;7.57;;;6.07;;
33858;SDS011;20156;47.486;12.074;2023-02-26T08:06:22;5.53;;;3.33;;
33858;SDS011;20156;47.486;12.074;2023-02-26T08:08:47;5.43;;;4.83;;
33858;SDS011;20156;47.486;12.074;2023-02-26T08:11:13;5.03;;;3.70;;
33858;SDS011;20156;47.486;12.074;2023-02-26T08:13:38;4.50;;;3.53;;
33858;SDS011;20156;47.486;12.074;2023-02-26T08:16:03;3.73;;;3.33;;
33858;SDS011;20156;47.486;12.074;2023-02-26T08:18:29;4.13;;;3.10;;
33858;SDS011;20156;47.486;12.074;2023-02-26T08:20:54;3.17;;;2.87;;
33858;SDS011;20156;47.486;12.074;2023-02-26T08:23:20;4.17;;;3.47;;
33858;SDS011;20156;47.486;12.074;2023-02-26T08:25:46;3.07;;;2.77;;
33858;SDS011;20156;47.486;12.074;2023-02-26T08:28:12;4.97;;;3.83;;
33858;SDS011;20156;47.486;12.074;2023-02-26T08:30:38;6.93;;;4.07;;
33858;SDS011;20156;47.486;12.074;2023-02-26T08:33:03;8.23;;;5.53;;
33858;SDS011;20156;47.486;12.074;2023-02-26T08:35:29;7.07;;;5.07;;
33858;SDS011;20156;47.486;12.074;2023-02-26T08:37:55;3.63;;;3.33;;
33858;SDS011;20156;47.486;12.074;2023-02-26T08:40:20;4.93;;;4.30;;
33858;SDS011;20156;47.486;12.074;2023-02-26T08:42:46;3.37;;;3.07;;
33858;SDS011;20156;47.486;12.074;2023-02-26T08:45:11;6.43;;;4.90;;
33858;SDS011;20156;47.486;12.074;2023-02-26T08:47:37;8.40;;;6.57;;
33858;SDS011;20156;47.486;12.074;2023-02-26T08:50:05;3.43;;;3.13;;
33858;SDS011;20156;47.486;12.074;2023-02-26T08:52:31;3.67;;;3.30;;
33858;SDS011;20156;47.486;12.074;2023-02-26T08:54:57;3.83;;;3.40;;
33858;SDS011;20156;47.486;12.074;2023-02-26T08:57:23;4.47;;;4.07;;
33858;SDS011;20156;47.486;12.074;2023-02-26T08:59:48;4.47;;;4.00;;
33858;SDS011;20156;47.486;12.074;2023-02-26T09:02:14;6.53;;;5.67;;
33858;SDS011;20156;47.486;12.074;2023-02-26T09:04:40;4.73;;;4.33;;
33858;SDS011;20156;47.486;12.074;2023-02-26T09:07:05;5.97;;;4.93;;
33858;SDS011;20156;47.486;12.074;2023-02-26T09:09:31;4.03;;;3.73;;
33858;SDS011;20156;47.486;12.074;2023-02-26T09:11:56;4.40;;;3.57;;
33858;SDS011;20156;47.486;12.074;2023-02-26T09:14:23;3.90;;;3.33;;
33858;SDS011;20156;47.486;12.074;2023-02-26T09:16:48;3.17;;;2.87;;
33858;SDS011;20156;47.486;12.074;2023-02-26T09:19:13;4.37;;;3.40;;
33858;SDS011;20156;47.486;12.074;2023-02-26T09:21:39;3.77;;;3.00;;
33858;SDS011;20156;47.486;12.074;2023-02-26T09:24:04;3.30;;;3.00;;
33858;SDS011;20156;47.486;12.074;2023-02-26T09:26:30;3.17;;;2.80;;
33858;SDS011;20156;47.486;12.074;2023-02-26T09:28:56;3.40;;;3.10;;
33858;SDS011;20156;47.486;12.074;2023-02-26T09:31:21;3.07;;;2.77;;
33858;SDS011;20156;47.486;12.074;2023-02-26T09:33:46;3.07;;;2.67;;
33858;SDS011;20156;47.486;12.074;2023-02-26T09:36:12;3.00;;;2.70;;
33858;SDS011;20156;47.486;12.074;2023-02-26T09:38:37;3.10;;;2.77;;
33858;SDS011;20156;47.486;12.074;2023-02-26T09:41:16;3.77;;;3.30;;
33858;SDS011;20156;47.486;12.074;2023-02-26T09:46:50;4.07;;;3.30;;
33858;SDS011;20156;47.486;12.074;2023-02-26T09:49:51;6.97;;;4.40;;
33858;SDS011;20156;47.486;12.074;2023-02-26T09:52:16;3.60;;;3.30;;
33858;SDS011;20156;47.486;12.074;2023-02-26T09:54:47;4.73;;;3.90;;
33858;SDS011;20156;47.486;12.074;2023-02-26T09:57:26;6.17;;;4.20;;
33858;SDS011;20156;47.486;12.074;2023-02-26T09:59:58;3.87;;;3.57;;
33858;SDS011;20156;47.486;12.074;2023-02-26T10:05:18;4.83;;;4.10;;
33858;SDS011;20156;47.486;12.074;2023-02-26T10:12:45;5.10;;;4.03;;
33858;SDS011;20156;47.486;12.074;2023-02-26T10:15:15;4.43;;;3.30;;
33858;SDS011;20156;47.486;12.074;2023-02-26T10:18:12;4.00;;;3.60;;
33858;SDS011;20156;47.486;12.074;2023-02-26T10:20:55;3.60;;;3.13;;
33858;SDS011;20156;47.486;12.074;2023-02-26T10:23:39;4.80;;;3.50;;
33858;SDS011;20156;47.486;12.074;2023-02-26T10:26:12;3.70;;;3.40;;
33858;SDS011;20156;47.486;12.074;2023-02-26T10:28:52;4.07;;;3.33;;
33858;SDS011;20156;47.486;12.074;2023-02-26T10:34:28;3.37;;;3.07;;
33858;SDS011;20156;47.486;12.074;2023-02-26T10:37:18;4.20;;;3.80;;
33858;SDS011;20156;47.486;12.074;2023-02-26T10:42:49;6.40;;;4.20;;
33858;SDS011;20156;47.486;12.074;2023-02-26T10:50:55;4.93;;;4.43;;
33858;SDS011;20156;47.486;12.074;2023-02-26T10:53:32;5.70;;;4.70;;
33858;SDS011;20156;47.486;12.074;2023-02-26T10:56:04;5.67;;;5.17;;
33858;SDS011;20156;47.486;12.074;2023-02-26T10:58:34;5.60;;;5.00;;
33858;SDS011;20156;47.486;12.074;2023-02-26T11:00:59;20.57;;;12.70;;
33858;SDS011;20156;47.486;12.074;2023-02-26T11:03:29;6.23;;;5.63;;
33858;SDS011;20156;47.486;12.074;2023-02-26T11:05:58;7.27;;;5.87;;
33858;SDS011;20156;47.486;12.074;2023-02-26T11:10:52;6.23;;;4.40;;
33858;SDS011;20156;47.486;12.074;2023-02-26T11:13:23;14.70;;;7.87;;
33858;SDS011;20156;47.486;12.074;2023-02-26T11:15:51;24.80;;;9.47;;
33858;SDS011;20156;47.486;12.074;2023-02-26T11:18:20;13.80;;;7.57;;
33858;SDS011;20156;47.486;12.074;2023-02-26T11:20:51;7.33;;;6.00;;
33858;SDS011;20156;47.486;12.074;2023-02-26T11:23:21;7.87;;;5.33;;
33858;SDS011;20156;47.486;12.074;2023-02-26T11:25:53;13.53;;;6.30;;
33858;SDS011;20156;47.486;12.074;2023-02-26T11:28:37;6.63;;;5.83;;
33858;SDS011;20156;47.486;12.074;2023-02-26T11:31:09;6.40;;;5.73;;
33858;SDS011;20156;47.486;12.074;2023-02-26T11:33:37;9.13;;;5.70;;
33858;SDS011;20156;47.486;12.074;2023-02-26T11:36:07;7.03;;;6.07;;
33858;SDS011;20156;47.486;12.074;2023-02-26T11:38:36;7.53;;;5.40;;
33858;SDS011;20156;47.486;12.074;2023-02-26T11:41:02;8.00;;;7.13;;
33858;SDS011;20156;47.486;12.074;2023-02-26T11:43:49;5.70;;;5.20;;
33858;SDS011;20156;47.486;12.074;2023-02-26T11:46:23;5.77;;;4.70;;
33858;SDS011;20156;47.486;12.074;2023-02-26T11:48:49;9.20;;;8.17;;
33858;SDS011;20156;47.486;12.074;2023-02-26T11:51:20;7.97;;;6.60;;
33858;SDS011;20156;47.486;12.074;2023-02-26T11:53:50;7.50;;;6.60;;
33858;SDS011;20156;47.486;12.074;2023-02-26T11:58:50;9.60;;;8.00;;
33858;SDS011;20156;47.486;12.074;2023-02-26T12:01:19;9.27;;;6.87;;
33858;SDS011;20156;47.486;12.074;2023-02-26T12:03:47;9.30;;;8.23;;
33858;SDS011;20156;47.486;12.074;2023-02-26T12:06:16;6.23;;;4.73;;
33858;SDS011;20156;47.486;12.074;2023-02-26T12:08:44;5.67;;;4.83;;
33858;SDS011;20156;47.486;12.074;2023-02-26T12:13:57;7.53;;;5.30;;
33858;SDS011;20156;47.486;12.074;2023-02-26T12:19:45;5.17;;;4.10;;
33858;SDS011;20156;47.486;12.074;2023-02-26T12:31:28;4.60;;;4.20;;
33858;SDS011;20156;47.486;12.074;2023-02-26T12:42:28;5.43;;;4.93;;
33858;SDS011;20156;47.486;12.074;2023-02-26T12:59:10;31.27;;;17.23;;
33858;SDS011;20156;47.486;12.074;2023-02-26T13:07:35;5.50;;;5.00;;
33858;SDS011;20156;47.486;12.074;2023-02-26T13:18:01;5.63;;;5.13;;
33858;SDS011;20156;47.486;12.074;2023-02-26T13:20:28;5.67;;;4.87;;
33858;SDS011;20156;47.486;12.074;2023-02-26T13:22:55;6.93;;;5.30;;
33858;SDS011;20156;47.486;12.074;2023-02-26T13:27:53;12.40;;;6.87;;
33858;SDS011;20156;47.486;12.074;2023-02-26T13:32:55;10.50;;;5.87;;
33858;SDS011;20156;47.486;12.074;2023-02-26T13:37:58;7.37;;;5.10;;
33858;SDS011;20156;47.486;12.074;2023-02-26T13:40:45;6.17;;;5.13;;
33858;SDS011;20156;47.486;12.074;2023-02-26T13:51:48;5.93;;;5.43;;
33858;SDS011;20156;47.486;12.074;2023-02-26T13:56:47;6.30;;;5.70;;
33858;SDS011;20156;47.486;12.074;2023-02-26T13:59:27;6.70;;;6.00;;
33858;SDS011;20156;47.486;12.074;2023-02-26T14:02:48;6.80;;;5.60;;
33858;SDS011;20156;47.486;12.074;2023-02-26T14:05:28;8.57;;;6.30;;
33858;SDS011;20156;47.486;12.074;2023-02-26T14:10:42;6.07;;;5.47;;
33858;SDS011;20156;47.486;12.074;2023-02-26T14:13:21;6.63;;;5.90;;
33858;SDS011;20156;47.486;12.074;2023-02-26T14:15:58;7.43;;;5.90;;
33858;SDS011;20156;47.486;12.074;2023-02-26T14:18:39;6.20;;;5.60;;
33858;SDS011;20156;47.486;12.074;2023-02-26T14:23:56;6.83;;;5.33;;
33858;SDS011;20156;47.486;12.074;2023-02-26T14:26:27;5.60;;;5.07;;
33858;SDS011;20156;47.486;12.074;2023-02-26T14:31:46;6.07;;;5.27;;
33858;SDS011;20156;47.486;12.074;2023-02-26T14:34:24;6.20;;;5.60;;
33858;SDS011;20156;47.486;12.074;2023-02-26T14:36:55;6.20;;;5.60;;
33858;SDS011;20156;47.486;12.074;2023-02-26T14:39:44;7.90;;;6.07;;
33858;SDS011;20156;47.486;12.074;2023-02-26T14:42:26;6.83;;;5.57;;
33858;SDS011;20156;47.486;12.074;2023-02-26T14:45:16;7.60;;;6.33;;
33858;SDS011;20156;47.486;12.074;2023-02-26T14:47:46;7.83;;;7.03;;
33858;SDS011;20156;47.486;12.074;2023-02-26T14:50:15;17.73;;;11.63;;
33858;SDS011;20156;47.486;12.074;2023-02-26T14:53:01;13.53;;;10.53;;
33858;SDS011;20156;47.486;12.074;2023-02-26T15:10:11;5.80;;;5.30;;
33858;SDS011;20156;47.486;12.074;2023-02-26T15:15:28;5.53;;;4.83;;
33858;SDS011;20156;47.486;12.074;2023-02-26T15:21:15;4.37;;;3.97;;
33858;SDS011;20156;47.486;12.074;2023-02-26T15:26:26;4.67;;;4.20;;
33858;SDS011;20156;47.486;12.074;2023-02-26T15:28:56;4.00;;;3.67;;
33858;SDS011;20156;47.486;12.074;2023-02-26T15:31:31;4.30;;;3.60;;
33858;SDS011;20156;47.486;12.074;2023-02-26T15:33:59;6.20;;;4.50;;
33858;SDS011;20156;47.486;12.074;2023-02-26T15:36:27;5.37;;;4.60;;
33858;SDS011;20156;47.486;12.074;2023-02-26T15:38:55;5.07;;;4.50;;
33858;SDS011;20156;47.486;12.074;2023-02-26T15:41:24;4.30;;;3.90;;
33858;SDS011;20156;47.486;12.074;2023-02-26T15:43:56;4.13;;;3.83;;
33858;SDS011;20156;47.486;12.074;2023-02-26T15:46:35;5.53;;;4.53;;
33858;SDS011;20156;47.486;12.074;2023-02-26T15:49:06;5.37;;;4.03;;
33858;SDS011;20156;47.486;12.074;2023-02-26T15:51:36;5.77;;;4.67;;
33858;SDS011;20156;47.486;12.074;2023-02-26T15:54:03;4.40;;;3.93;;
33858;SDS011;20156;47.486;12.074;2023-02-26T15:56:34;4.20;;;3.80;;
33858;SDS011;20156;47.486;12.074;2023-02-26T15:59:05;3.37;;;2.97;;
33858;SDS011;20156;47.486;12.074;2023-02-26T16:01:35;3.67;;;3.37;;
33858;SDS011;20156;47.486;12.074;2023-02-26T16:04:02;3.50;;;3.20;;
33858;SDS011;20156;47.486;12.074;2023-02-26T16:07:13;3.20;;;2.90;;
33858;SDS011;20156;47.486;12.074;2023-02-26T16:09:34;3.47;;;3.17;;
33858;SDS011;20156;47.486;12.074;2023-02-26T16:12:05;3.27;;;2.97;;
33858;SDS011;20156;47.486;12.074;2023-02-26T16:14:35;3.23;;;2.83;;
33858;SDS011;20156;47.486;12.074;2023-02-26T16:17:04;3.07;;;2.77;;
33858;SDS011;20156;47.486;12.074;2023-02-26T16:19:33;3.97;;;3.53;;
33858;SDS011;20156;47.486;12.074;2023-02-26T16:22:04;3.90;;;3.30;;
33858;SDS011;20156;47.486;12.074;2023-02-26T16:24:37;4.53;;;3.77;;
33858;SDS011;20156;47.486;12.074;2023-02-26T16:27:04;3.73;;;3.33;;
33858;SDS011;20156;47.486;12.074;2023-02-26T16:29:34;4.57;;;3.70;;
33858;SDS011;20156;47.486;12.074;2023-02-26T16:32:02;4.03;;;3.10;;
33858;SDS011;20156;47.486;12.074;2023-02-26T16:34:41;4.47;;;3.63;;
33858;SDS011;20156;47.486;12.074;2023-02-26T16:40:18;8.33;;;5.47;;
33858;SDS011;20156;47.486;12.074;2023-02-26T16:43:35;5.73;;;4.60;;
33858;SDS011;20156;47.486;12.074;2023-02-26T16:46:08;5.93;;;3.23;;
33858;SDS011;20156;47.486;12.074;2023-02-26T16:51:21;10.20;;;5.53;;
33858;SDS011;20156;47.486;12.074;2023-02-26T16:53:59;8.40;;;5.00;;
33858;SDS011;20156;47.486;12.074;2023-02-26T16:56:28;3.10;;;2.80;;
33858;SDS011;20156;47.486;12.074;2023-02-26T16:59:04;4.53;;;3.40;;
33858;SDS011;20156;47.486;12.074;2023-02-26T17:01:47;3.40;;;3.10;;
33858;SDS011;20156;47.486;12.074;2023-02-26T17:04:17;4.20;;;3.80;;
33858;SDS011;20156;47.486;12.074;2023-02-26T17:06:45;3.47;;;3.17;;
33858;SDS011;20156;47.486;12.074;2023-02-26T17:12:15;3.67;;;3.30;;
33858;SDS011;20156;47.486;12.074;2023-02-26T17:14:50;4.30;;;2.97;;
33858;SDS011;20156;47.486;12.074;2023-02-26T17:17:21;4.55;;;3.58;;
33858;SDS011;20156;47.486;12.074;2023-02-26T17:19:47;3.93;;;3.47;;
33858;SDS011;20156;47.486;12.074;2023-02-26T17:22:17;4.30;;;3.90;;
33858;SDS011;20156;47.486;12.074;2023-02-26T17:24:48;3.83;;;3.20;;
33858;SDS011;20156;47.486;12.074;2023-02-26T17:27:23;3.73;;;3.40;;
33858;SDS011;20156;47.486;12.074;2023-02-26T17:29:55;5.50;;;4.83;;
33858;SDS011;20156;47.486;12.074;2023-02-26T17:32:23;5.27;;;4.63;;
33858;SDS011;20156;47.486;12.074;2023-02-26T17:34:51;4.40;;;3.90;;
33858;SDS011;20156;47.486;12.074;2023-02-26T17:37:18;5.07;;;3.53;;
33858;SDS011;20156;47.486;12.074;2023-02-26T17:39:45;4.97;;;3.90;;
33858;SDS011;20156;47.486;12.074;2023-02-26T17:42:12;4.37;;;3.20;;
33858;SDS011;20156;47.486;12.074;2023-02-26T17:44:40;3.20;;;2.90;;
33858;SDS011;20156;47.486;12.074;2023-02-26T17:47:16;6.83;;;5.43;;
33858;SDS011;20156;47.486;12.074;2023-02-26T17:49:44;12.73;;;9.67;;
33858;SDS011;20156;47.486;12.074;2023-02-26T17:52:11;7.90;;;6.77;;
33858;SDS011;20156;47.486;12.074;2023-02-26T17:54:37;18.10;;;13.37;;
33858;SDS011;20156;47.486;12.074;2023-02-26T17:57:04;9.97;;;6.97;;
33858;SDS011;20156;47.486;12.074;2023-02-26T17:59:30;6.50;;;5.80;;
33858;SDS011;20156;47.486;12.074;2023-02-26T18:01:57;6.57;;;5.70;;
33858;SDS011;20156;47.486;12.074;2023-02-26T18:04:23;6.23;;;4.80;;
33858;SDS011;20156;47.486;12.074;2023-02-26T18:06:49;5.53;;;4.53;;
33858;SDS011;20156;47.486;12.074;2023-02-26T18:09:15;4.67;;;4.17;;
33858;SDS011;20156;47.486;12.074;2023-02-26T18:11:41;5.20;;;4.70;;